Time;durP1;ratioP1;P1;durP2;ratioP2;P2;SDS_P1;SDS_P2;PMS_P1;PMS_P2;Temp;Humidity;BMP_temperature;BMP_pressure;BME280_temperature;BME280_humidity;BME280_pressure;Samples;Min_cycle;Max_cycle;Signal;HPM_P1;HPM_P2
2022/12/29 00:00:30;;;;;;;60.42;5.85;;;;;;;;;;2076826;28;20029;-84
2022/12/29 00:01:51;;;;;;;139.32;13.32;;;;;;;;;;2084286;28;20021;-84
2022/12/29 00:03:10;;;;;;;191.60;11.05;;;;;;;;;;2079048;28;20208;-84
2022/12/29 00:04:29;;;;;;;102.15;10.23;;;;;;;;;;2079278;28;20037;-84
2022/12/29 00:05:53;;;;;;;57.28;5.25;;;;;;;;;;2077353;28;20025;-85
2022/12/29 00:07:12;;;;;;;46.70;5.13;;;;;;;;;;2078006;28;20029;-85
2022/12/29 00:08:40;;;;;;;130.45;10.00;;;;;;;;;;2077533;28;20529;-84
2022/12/29 00:09:59;;;;;;;48.45;5.70;;;;;;;;;;2077277;28;20034;-84
2022/12/29 00:11:19;;;;;;;53.38;5.47;;;;;;;;;;2077066;28;20037;-84
2022/12/29 00:15:53;;;;;;;62.60;6.32;;;;;;;;;;2081084;28;20029;-84
2022/12/29 00:17:12;;;;;;;84.15;7.55;;;;;;;;;;2080585;28;20022;-84
2022/12/29 00:18:31;;;;;;;69.25;7.30;;;;;;;;;;2085389;28;20025;-84
2022/12/29 00:36:19;;;;;;;114.70;10.13;;;;;;;;;;2080371;28;20029;-84
2022/12/29 00:44:12;;;;;;;120.95;11.02;;;;;;;;;;2080980;28;20037;-84
2022/12/29 00:45:31;;;;;;;87.90;8.07;;;;;;;;;;2078202;28;20021;-84
2022/12/29 00:46:50;;;;;;;142.02;11.55;;;;;;;;;;2080645;28;20034;-84
2022/12/29 00:48:09;;;;;;;287.63;17.65;;;;;;;;;;2079971;28;20034;-84
2022/12/29 00:49:30;;;;;;;108.35;8.93;;;;;;;;;;2079751;28;20417;-84
2022/12/29 00:50:55;;;;;;;132.05;10.90;;;;;;;;;;2075614;28;20021;-84
2022/12/29 00:52:14;;;;;;;258.05;16.00;;;;;;;;;;2076136;28;20037;-84
2022/12/29 00:53:33;;;;;;;76.10;7.18;;;;;;;;;;2076329;28;20410;-84
2022/12/29 00:54:52;;;;;;;111.45;10.95;;;;;;;;;;2080251;28;20037;-84
2022/12/29 00:56:10;;;;;;;195.65;13.32;;;;;;;;;;2075311;28;20029;-84
2022/12/29 00:57:29;;;;;;;67.60;7.90;;;;;;;;;;2077242;28;20041;-84
2022/12/29 00:58:48;;;;;;;117.63;10.77;;;;;;;;;;2076324;28;20033;-84
2022/12/29 01:00:07;;;;;;;130.23;9.98;;;;;;;;;;2079855;28;20041;-84
2022/12/29 01:01:26;;;;;;;218.70;16.73;;;;;;;;;;2080086;28;20030;-84
2022/12/29 01:02:45;;;;;;;335.65;19.80;;;;;;;;;;2077150;28;20120;-84
2022/12/29 01:04:05;;;;;;;193.55;13.48;;;;;;;;;;2077227;28;20041;-84
2022/12/29 01:05:24;;;;;;;282.00;18.52;;;;;;;;;;2077698;28;20029;-85
2022/12/29 01:06:43;;;;;;;273.73;16.25;;;;;;;;;;2076770;28;20030;-84
2022/12/29 01:08:02;;;;;;;258.67;16.42;;;;;;;;;;2076527;28;20387;-84
2022/12/29 01:10:59;;;;;;;127.78;10.00;;;;;;;;;;2080326;28;20026;-84
2022/12/29 01:12:40;;;;;;;90.10;9.07;;;;;;;;;;2088660;28;20088;-84
2022/12/29 01:13:57;;;;;;;74.50;9.20;;;;;;;;;;2080773;28;20053;-84
2022/12/29 01:15:16;;;;;;;123.53;10.85;;;;;;;;;;2080997;28;20026;-84
2022/12/29 01:16:36;;;;;;;57.05;8.38;;;;;;;;;;2075587;28;20026;-84
2022/12/29 01:17:55;;;;;;;112.45;8.73;;;;;;;;;;2081067;28;20026;-84
2022/12/29 01:19:15;;;;;;;88.85;11.18;;;;;;;;;;2080025;28;20029;-85
2022/12/29 01:20:34;;;;;;;89.45;10.63;;;;;;;;;;2085629;28;20108;-84
2022/12/29 01:21:53;;;;;;;127.53;9.55;;;;;;;;;;2080079;28;20034;-84
2022/12/29 01:23:12;;;;;;;69.38;7.10;;;;;;;;;;2075559;28;20077;-84
2022/12/29 01:24:31;;;;;;;139.07;11.77;;;;;;;;;;2081157;28;20490;-84
2022/12/29 01:25:50;;;;;;;119.32;10.93;;;;;;;;;;2081975;28;20109;-84
2022/12/29 01:27:09;;;;;;;149.20;11.50;;;;;;;;;;2081730;28;20033;-84
2022/12/29 01:28:27;;;;;;;129.90;10.48;;;;;;;;;;2077773;28;20116;-84
2022/12/29 01:29:46;;;;;;;82.13;7.78;;;;;;;;;;2078163;28;20014;-84
2022/12/29 01:31:08;;;;;;;72.63;8.38;;;;;;;;;;2077696;28;20045;-84
2022/12/29 01:32:27;;;;;;;105.75;9.50;;;;;;;;;;2079423;28;20034;-84
2022/12/29 01:33:47;;;;;;;260.60;18.48;;;;;;;;;;2078520;28;20506;-84
2022/12/29 01:35:06;;;;;;;131.68;11.00;;;;;;;;;;2078035;28;20026;-84
2022/12/29 01:36:25;;;;;;;107.13;9.27;;;;;;;;;;2080940;28;20025;-84
2022/12/29 01:37:44;;;;;;;105.82;10.40;;;;;;;;;;2081499;28;20029;-85
2022/12/29 01:39:03;;;;;;;72.10;7.95;;;;;;;;;;2078880;28;20122;-84
2022/12/29 01:40:22;;;;;;;67.00;7.30;;;;;;;;;;2087072;28;20025;-84
2022/12/29 01:41:41;;;;;;;125.35;10.88;;;;;;;;;;2081500;28;20030;-84
2022/12/29 01:43:00;;;;;;;210.50;13.73;;;;;;;;;;2082125;28;20030;-83
2022/12/29 01:44:37;;;;;;;140.93;12.45;;;;;;;;;;2081788;28;20041;-84
2022/12/29 01:45:56;;;;;;;185.38;12.45;;;;;;;;;;2082246;28;20029;-84
2022/12/29 01:47:20;;;;;;;66.28;7.32;;;;;;;;;;2081769;28;20066;-84
2022/12/29 01:48:39;;;;;;;337.17;21.73;;;;;;;;;;2086927;28;20055;-84
2022/12/29 01:50:01;;;;;;;92.13;8.07;;;;;;;;;;2081739;28;20033;-84
2022/12/29 01:51:21;;;;;;;209.25;12.98;;;;;;;;;;2078812;28;20038;-85
2022/12/29 01:52:42;;;;;;;104.50;9.15;;;;;;;;;;2085575;28;20025;-84
2022/12/29 01:54:02;;;;;;;223.98;15.13;;;;;;;;;;2088893;28;20029;-85
2022/12/29 01:55:22;;;;;;;226.10;16.65;;;;;;;;;;2082020;28;20017;-84
2022/12/29 01:56:41;;;;;;;236.85;15.25;;;;;;;;;;2086187;28;20060;-84
2022/12/29 01:58:02;;;;;;;94.32;9.45;;;;;;;;;;2081256;28;20061;-85
2022/12/29 01:59:23;;;;;;;260.55;16.40;;;;;;;;;;2078654;28;20033;-85
2022/12/29 02:00:44;;;;;;;96.70;9.32;;;;;;;;;;2081704;28;20097;-84
2022/12/29 02:02:04;;;;;;;40.72;7.22;;;;;;;;;;2081038;28;20026;-84
2022/12/29 02:03:26;;;;;;;194.35;15.80;;;;;;;;;;2077749;28;20021;-84
2022/12/29 02:04:45;;;;;;;56.33;7.95;;;;;;;;;;2079056;28;20395;-84
2022/12/29 02:06:08;;;;;;;69.20;8.00;;;;;;;;;;2076144;28;20148;-84
2022/12/29 02:07:28;;;;;;;68.50;8.30;;;;;;;;;;2080056;28;20029;-84
2022/12/29 02:08:49;;;;;;;84.28;8.32;;;;;;;;;;2081939;28;20030;-84
2022/12/29 02:10:08;;;;;;;143.20;11.15;;;;;;;;;;2086459;28;20112;-84
2022/12/29 02:11:28;;;;;;;43.40;6.70;;;;;;;;;;2082274;28;20507;-84
2022/12/29 02:12:47;;;;;;;27.83;5.25;;;;;;;;;;2086044;28;20017;-84
2022/12/29 02:14:10;;;;;;;22.33;6.13;;;;;;;;;;2082248;28;20037;-84
2022/12/29 02:15:42;;;;;;;34.25;5.80;;;;;;;;;;2081703;28;20474;-84
2022/12/29 02:17:13;;;;;;;47.08;7.35;;;;;;;;;;2080651;28;20499;-84
2022/12/29 02:18:47;;;;;;;149.65;11.85;;;;;;;;;;2079279;28;20057;-84
2022/12/29 02:20:20;;;;;;;105.20;9.20;;;;;;;;;;2080029;28;20029;-84
2022/12/29 02:21:58;;;;;;;70.18;8.13;;;;;;;;;;2080621;28;20017;-84
2022/12/29 02:23:35;;;;;;;77.60;8.70;;;;;;;;;;2080452;28;20045;-85
2022/12/29 02:25:05;;;;;;;31.25;6.75;;;;;;;;;;2080814;28;20045;-84
2022/12/29 02:26:56;;;;;;;35.08;7.25;;;;;;;;;;2079237;28;20038;-84
2022/12/29 02:28:18;;;;;;;70.60;8.50;;;;;;;;;;2057033;28;20043;-84
2022/12/29 02:29:46;;;;;;;58.50;8.20;;;;;;;;;;2077185;28;20037;-84
2022/12/29 02:31:05;;;;;;;25.48;6.97;;;;;;;;;;2079240;28;20771;-84
2022/12/29 02:32:30;;;;;;;37.08;7.53;;;;;;;;;;2077519;28;20510;-84
2022/12/29 02:34:08;;;;;;;38.10;7.70;;;;;;;;;;2078343;28;20101;-85
2022/12/29 02:35:41;;;;;;;45.92;7.85;;;;;;;;;;2080959;28;20064;-84
2022/12/29 02:37:03;;;;;;;27.60;6.97;;;;;;;;;;2078593;28;20029;-84
2022/12/29 02:38:25;;;;;;;31.02;7.15;;;;;;;;;;2078423;28;20029;-84
2022/12/29 02:40:05;;;;;;;37.72;7.80;;;;;;;;;;2079681;28;20033;-84
2022/12/29 02:41:26;;;;;;;31.20;7.68;;;;;;;;;;2080939;28;20116;-84
2022/12/29 02:42:51;;;;;;;26.35;7.68;;;;;;;;;;2077638;28;20017;-84
2022/12/29 02:44:28;;;;;;;45.33;8.13;;;;;;;;;;2078870;28;20034;-84
2022/12/29 02:45:54;;;;;;;38.17;9.20;;;;;;;;;;2081032;28;20029;-84
2022/12/29 02:47:19;;;;;;;35.50;9.10;;;;;;;;;;2086463;28;20025;-84
2022/12/29 02:48:58;;;;;;;43.90;9.07;;;;;;;;;;2080465;28;20935;-84
2022/12/29 02:50:23;;;;;;;33.00;8.23;;;;;;;;;;2081215;28;20033;-84
2022/12/29 02:52:03;;;;;;;38.90;7.80;;;;;;;;;;2081190;28;20486;-84
2022/12/29 02:54:40;;;;;;;46.28;8.48;;;;;;;;;;2081612;28;20033;-84
2022/12/29 02:55:02;;;;;;;35.13;8.90;;;;;;;;;;2080940;28;20538;-84
2022/12/29 02:56:21;;;;;;;26.23;7.88;;;;;;;;;;2081310;28;20108;-84
2022/12/29 02:57:40;;;;;;;43.80;9.70;;;;;;;;;;2077062;28;20415;-84
2022/12/29 02:58:59;;;;;;;44.17;9.48;;;;;;;;;;2077727;28;20033;-84
2022/12/29 03:00:18;;;;;;;44.03;9.90;;;;;;;;;;2080578;28;20022;-84
2022/12/29 03:01:39;;;;;;;36.55;9.45;;;;;;;;;;2079054;28;20477;-84
2022/12/29 03:03:11;;;;;;;39.13;9.48;;;;;;;;;;2085371;28;20029;-84
2022/12/29 03:04:35;;;;;;;39.50;9.32;;;;;;;;;;2081042;28;20061;-84
2022/12/29 03:06:01;;;;;;;25.52;8.63;;;;;;;;;;2079220;28;20030;-84
2022/12/29 03:07:23;;;;;;;35.08;8.93;;;;;;;;;;2078183;28;20505;-84
2022/12/29 03:08:42;;;;;;;36.05;8.50;;;;;;;;;;2078803;28;21538;-84
2022/12/29 03:10:13;;;;;;;36.25;8.98;;;;;;;;;;2077936;28;20108;-84
2022/12/29 03:16:02;;;;;;;36.65;9.45;;;;;;;;;;2067242;28;20038;-84
2022/12/29 03:17:26;;;;;;;37.92;9.43;;;;;;;;;;2074406;28;20066;-84
2022/12/29 03:18:46;;;;;;;37.85;9.30;;;;;;;;;;2081245;28;20037;-84
2022/12/29 03:20:07;;;;;;;38.25;9.68;;;;;;;;;;2078466;28;20038;-85
2022/12/29 03:23:25;;;;;;;39.80;9.73;;;;;;;;;;2080569;28;20037;-84
2022/12/29 03:24:47;;;;;;;41.33;10.00;;;;;;;;;;2081259;28;20033;-84
2022/12/29 03:26:08;;;;;;;39.22;9.75;;;;;;;;;;2080295;28;20033;-84
2022/12/29 03:27:33;;;;;;;41.30;9.93;;;;;;;;;;2080075;28;20029;-84
2022/12/29 03:28:53;;;;;;;45.15;9.75;;;;;;;;;;2077639;28;20492;-84
2022/12/29 03:30:12;;;;;;;43.38;10.27;;;;;;;;;;2077898;28;20022;-85
2022/12/29 03:31:32;;;;;;;38.30;10.25;;;;;;;;;;2078454;28;20033;-84
2022/12/29 03:33:10;;;;;;;42.85;11.07;;;;;;;;;;2075978;28;20042;-84
2022/12/29 03:34:29;;;;;;;37.08;10.38;;;;;;;;;;2080516;28;20116;-84
2022/12/29 03:35:49;;;;;;;44.22;10.02;;;;;;;;;;2077436;28;20053;-84
2022/12/29 03:37:14;;;;;;;48.72;11.02;;;;;;;;;;2080629;28;20025;-85
2022/12/29 03:38:35;;;;;;;35.15;10.48;;;;;;;;;;2077950;28;20037;-84
2022/12/29 03:39:54;;;;;;;37.03;11.07;;;;;;;;;;2078596;28;20033;-84
2022/12/29 03:41:16;;;;;;;50.65;11.02;;;;;;;;;;2078343;28;20073;-84
2022/12/29 03:42:36;;;;;;;42.70;10.75;;;;;;;;;;2086721;28;20955;-84
2022/12/29 03:43:55;;;;;;;44.33;10.90;;;;;;;;;;2080609;28;20112;-84
2022/12/29 03:45:14;;;;;;;36.15;10.88;;;;;;;;;;2078185;28;20069;-84
2022/12/29 03:46:33;;;;;;;49.58;11.18;;;;;;;;;;2077313;28;20948;-84
2022/12/29 03:47:53;;;;;;;46.53;11.07;;;;;;;;;;2077816;28;20021;-84
2022/12/29 03:49:12;;;;;;;44.00;11.38;;;;;;;;;;2077722;28;20046;-84
2022/12/29 03:50:30;;;;;;;41.10;11.40;;;;;;;;;;2077945;28;20022;-84
2022/12/29 03:51:49;;;;;;;42.55;11.13;;;;;;;;;;2077936;28;20112;-84
2022/12/29 03:53:08;;;;;;;50.83;11.48;;;;;;;;;;2078216;28;20033;-84
2022/12/29 03:54:27;;;;;;;41.13;10.77;;;;;;;;;;2075961;28;20037;-84
2022/12/29 03:55:46;;;;;;;42.03;11.65;;;;;;;;;;2077358;28;20026;-84
2022/12/29 03:57:05;;;;;;;37.75;11.00;;;;;;;;;;2076628;28;20041;-84
2022/12/29 03:58:24;;;;;;;35.58;10.60;;;;;;;;;;2085021;28;20037;-84
2022/12/29 03:59:43;;;;;;;38.00;11.80;;;;;;;;;;2081053;28;20101;-84
2022/12/29 04:01:02;;;;;;;38.55;11.57;;;;;;;;;;2077732;28;20104;-82
2022/12/29 04:02:21;;;;;;;39.47;11.90;;;;;;;;;;2085506;28;20453;-85
2022/12/29 04:03:40;;;;;;;37.75;11.20;;;;;;;;;;2079448;28;20029;-84
2022/12/29 04:04:59;;;;;;;39.00;10.98;;;;;;;;;;2080446;28;20112;-85
2022/12/29 04:06:18;;;;;;;39.72;11.70;;;;;;;;;;2080707;28;20455;-84
2022/12/29 04:07:37;;;;;;;36.70;11.25;;;;;;;;;;2077966;28;20521;-84
2022/12/29 04:08:55;;;;;;;33.25;10.82;;;;;;;;;;2080004;28;20021;-85
2022/12/29 04:10:14;;;;;;;34.40;10.98;;;;;;;;;;2077700;28;20033;-84
2022/12/29 04:11:33;;;;;;;36.88;12.15;;;;;;;;;;2080182;28;20029;-84
2022/12/29 04:12:52;;;;;;;33.05;11.95;;;;;;;;;;2079746;28;20475;-84
2022/12/29 04:14:11;;;;;;;36.85;12.40;;;;;;;;;;2077380;28;20116;-84
2022/12/29 04:15:30;;;;;;;34.88;11.63;;;;;;;;;;2076712;28;20033;-84
2022/12/29 04:16:49;;;;;;;32.65;11.73;;;;;;;;;;2077541;28;20511;-84
2022/12/29 04:18:08;;;;;;;32.13;11.63;;;;;;;;;;2086345;28;20032;-84
2022/12/29 04:19:27;;;;;;;34.35;12.10;;;;;;;;;;2080352;28;20104;-84
2022/12/29 04:21:03;;;;;;;31.48;11.30;;;;;;;;;;2077749;28;20029;-84
2022/12/29 04:22:22;;;;;;;33.65;10.85;;;;;;;;;;2079935;28;20041;-84
2022/12/29 04:23:41;;;;;;;29.40;11.50;;;;;;;;;;2076811;28;20025;-84
2022/12/29 04:25:00;;;;;;;33.83;12.20;;;;;;;;;;2077061;28;20029;-84
2022/12/29 04:26:19;;;;;;;31.92;11.75;;;;;;;;;;2076968;28;20034;-84
2022/12/29 04:27:38;;;;;;;29.90;12.45;;;;;;;;;;2077617;28;20021;-84
2022/12/29 04:28:57;;;;;;;36.88;12.77;;;;;;;;;;2077203;28;20018;-84
2022/12/29 04:30:16;;;;;;;31.23;11.55;;;;;;;;;;2077591;28;20029;-84
2022/12/29 04:31:35;;;;;;;29.38;11.48;;;;;;;;;;2076718;28;21554;-85
2022/12/29 04:32:54;;;;;;;26.85;11.88;;;;;;;;;;2076671;28;20053;-84
2022/12/29 04:34:13;;;;;;;34.00;12.10;;;;;;;;;;2085713;28;21507;-85
2022/12/29 04:35:32;;;;;;;29.85;12.07;;;;;;;;;;2081014;28;20029;-84
2022/12/29 04:36:52;;;;;;;32.80;12.27;;;;;;;;;;2078093;28;20026;-84
2022/12/29 04:38:11;;;;;;;26.00;11.82;;;;;;;;;;2085829;28;20029;-84
2022/12/29 04:39:30;;;;;;;32.95;12.65;;;;;;;;;;2079022;28;20112;-84
2022/12/29 04:40:49;;;;;;;29.08;12.02;;;;;;;;;;2080474;28;20029;-84
2022/12/29 04:42:08;;;;;;;33.50;13.13;;;;;;;;;;2079588;28;20479;-84
2022/12/29 04:43:27;;;;;;;25.75;12.68;;;;;;;;;;2079541;28;20033;-84
2022/12/29 04:44:47;;;;;;;27.88;13.13;;;;;;;;;;2076455;28;21053;-84
2022/12/29 04:46:06;;;;;;;32.20;13.13;;;;;;;;;;2077858;28;20041;-84
2022/12/29 04:47:25;;;;;;;28.35;12.48;;;;;;;;;;2077551;28;20038;-84
2022/12/29 04:48:43;;;;;;;32.28;13.35;;;;;;;;;;2076598;28;20698;-84
2022/12/29 04:50:03;;;;;;;32.55;13.02;;;;;;;;;;2076521;28;20037;-84
2022/12/29 04:51:22;;;;;;;33.42;13.63;;;;;;;;;;2076996;28;20017;-84
2022/12/29 04:52:41;;;;;;;29.20;12.90;;;;;;;;;;2075807;28;20033;-85
2022/12/29 04:54:00;;;;;;;37.97;14.02;;;;;;;;;;2081101;28;20025;-84
2022/12/29 04:55:18;;;;;;;31.40;12.77;;;;;;;;;;2076910;28;20026;-84
2022/12/29 04:56:37;;;;;;;31.63;13.23;;;;;;;;;;2080476;28;20017;-84
2022/12/29 04:57:56;;;;;;;30.25;12.52;;;;;;;;;;2080464;28;20037;-84
2022/12/29 04:59:15;;;;;;;32.95;13.18;;;;;;;;;;2079784;28;20025;-84
2022/12/29 05:00:34;;;;;;;26.65;12.30;;;;;;;;;;2080155;28;20034;-84
2022/12/29 05:01:53;;;;;;;29.08;13.30;;;;;;;;;;2080029;28;20030;-84
2022/12/29 05:03:12;;;;;;;33.33;13.25;;;;;;;;;;2079459;28;20068;-85
2022/12/29 05:04:31;;;;;;;32.67;14.18;;;;;;;;;;2076778;28;20981;-84
2022/12/29 05:05:52;;;;;;;32.58;13.23;;;;;;;;;;2079816;28;20120;-84
2022/12/29 05:07:11;;;;;;;31.45;13.32;;;;;;;;;;2080859;28;20503;-84
2022/12/29 05:08:30;;;;;;;30.10;13.90;;;;;;;;;;2076800;28;20033;-84
2022/12/29 05:09:49;;;;;;;39.63;13.02;;;;;;;;;;2080513;28;20041;-84
2022/12/29 05:11:08;;;;;;;28.70;13.18;;;;;;;;;;2080877;28;20025;-84
2022/12/29 05:12:29;;;;;;;31.42;13.15;;;;;;;;;;2077763;28;20022;-84
2022/12/29 05:13:48;;;;;;;28.88;13.13;;;;;;;;;;2078721;28;20382;-84
2022/12/29 05:15:08;;;;;;;31.90;12.90;;;;;;;;;;2080222;28;20057;-85
2022/12/29 05:16:27;;;;;;;28.08;12.95;;;;;;;;;;2077878;28;20041;-84
2022/12/29 05:17:49;;;;;;;29.17;13.07;;;;;;;;;;2081078;28;20041;-84
2022/12/29 05:19:08;;;;;;;35.40;13.25;;;;;;;;;;2076665;28;20029;-84
2022/12/29 05:20:26;;;;;;;31.90;12.65;;;;;;;;;;2079031;28;20408;-84
2022/12/29 05:21:45;;;;;;;30.98;13.10;;;;;;;;;;2079932;28;20030;-84
2022/12/29 05:23:04;;;;;;;34.05;13.32;;;;;;;;;;2079886;28;20086;-84
2022/12/29 05:24:23;;;;;;;34.67;13.63;;;;;;;;;;2080228;28;20030;-82
2022/12/29 05:25:44;;;;;;;28.10;13.52;;;;;;;;;;2080656;28;20022;-83
2022/12/29 05:27:03;;;;;;;31.08;12.57;;;;;;;;;;2079127;28;20025;-83
2022/12/29 05:28:22;;;;;;;30.98;13.63;;;;;;;;;;2076639;28;20053;-83
2022/12/29 05:29:41;;;;;;;36.65;14.57;;;;;;;;;;2084290;28;20482;-83
2022/12/29 05:31:01;;;;;;;35.85;14.77;;;;;;;;;;2080195;28;20553;-83
2022/12/29 05:32:20;;;;;;;34.55;14.18;;;;;;;;;;2076774;28;20038;-83
2022/12/29 05:33:39;;;;;;;33.15;13.95;;;;;;;;;;2076725;28;20025;-83
2022/12/29 05:34:57;;;;;;;30.75;13.38;;;;;;;;;;2079826;28;20037;-83
2022/12/29 05:36:16;;;;;;;32.03;14.43;;;;;;;;;;2080121;28;20030;-83
2022/12/29 05:37:35;;;;;;;33.83;13.65;;;;;;;;;;2085214;28;20025;-83
2022/12/29 05:38:54;;;;;;;33.60;13.23;;;;;;;;;;2079790;28;20347;-83
2022/12/29 05:40:13;;;;;;;34.45;14.20;;;;;;;;;;2076669;28;20198;-83
2022/12/29 05:41:32;;;;;;;35.92;14.90;;;;;;;;;;2077786;28;20120;-83
2022/12/29 05:42:51;;;;;;;39.20;14.13;;;;;;;;;;2079956;28;20112;-83
2022/12/29 05:44:10;;;;;;;40.92;13.88;;;;;;;;;;2080152;28;20172;-83
2022/12/29 05:45:30;;;;;;;31.75;13.63;;;;;;;;;;2085370;28;20014;-83
2022/12/29 05:46:49;;;;;;;33.38;13.30;;;;;;;;;;2083600;28;20034;-83
2022/12/29 05:48:08;;;;;;;34.80;13.55;;;;;;;;;;2080373;28;20030;-83
2022/12/29 05:49:26;;;;;;;28.85;12.48;;;;;;;;;;2079920;28;20025;-83
2022/12/29 05:50:49;;;;;;;28.92;12.75;;;;;;;;;;2076258;28;20029;-84
2022/12/29 05:52:08;;;;;;;30.83;12.82;;;;;;;;;;2077098;28;20041;-83
2022/12/29 05:53:26;;;;;;;32.72;13.43;;;;;;;;;;2075917;28;20017;-83
2022/12/29 05:54:46;;;;;;;31.77;12.43;;;;;;;;;;2080668;28;20077;-83
2022/12/29 05:56:05;;;;;;;34.80;14.32;;;;;;;;;;2079032;28;20034;-82
2022/12/29 05:57:25;;;;;;;33.00;13.95;;;;;;;;;;2076394;28;20033;-83
2022/12/29 05:58:43;;;;;;;34.45;13.27;;;;;;;;;;2085056;28;20025;-83
2022/12/29 06:00:03;;;;;;;34.70;12.75;;;;;;;;;;2080757;28;20038;-83
2022/12/29 06:01:22;;;;;;;34.17;13.43;;;;;;;;;;2077824;28;20057;-83
2022/12/29 06:02:41;;;;;;;28.33;12.85;;;;;;;;;;2076166;28;20022;-85
2022/12/29 06:04:00;;;;;;;24.55;11.85;;;;;;;;;;2077833;28;20573;-83
2022/12/29 06:05:19;;;;;;;29.63;12.90;;;;;;;;;;2077209;28;20084;-83
2022/12/29 06:06:39;;;;;;;26.73;12.23;;;;;;;;;;2076857;28;20061;-83
2022/12/29 06:07:58;;;;;;;32.30;12.75;;;;;;;;;;2076757;28;20021;-83
2022/12/29 06:09:17;;;;;;;31.60;11.88;;;;;;;;;;2080777;28;20026;-82
2022/12/29 06:10:36;;;;;;;27.30;11.52;;;;;;;;;;2080766;28;20511;-83
2022/12/29 06:11:55;;;;;;;26.15;10.93;;;;;;;;;;2079634;28;20116;-83
2022/12/29 06:13:14;;;;;;;27.63;11.57;;;;;;;;;;2078823;28;20029;-83
2022/12/29 06:14:33;;;;;;;24.48;11.35;;;;;;;;;;2082440;28;20033;-82
2022/12/29 06:15:51;;;;;;;31.15;11.60;;;;;;;;;;2076945;28;20018;-83
2022/12/29 06:17:11;;;;;;;25.60;11.60;;;;;;;;;;2078368;28;20034;-83
2022/12/29 06:18:30;;;;;;;31.13;11.98;;;;;;;;;;2078044;28;20100;-82
2022/12/29 06:19:48;;;;;;;33.30;11.45;;;;;;;;;;2078748;28;20037;-83
2022/12/29 06:21:07;;;;;;;30.25;10.63;;;;;;;;;;2077523;28;20029;-83
2022/12/29 06:22:26;;;;;;;25.92;10.45;;;;;;;;;;2078772;28;20104;-85
2022/12/29 06:23:45;;;;;;;23.98;10.25;;;;;;;;;;2077344;28;20126;-85
2022/12/29 06:25:05;;;;;;;29.13;11.52;;;;;;;;;;2081393;28;20034;-85
2022/12/29 06:26:24;;;;;;;28.58;10.23;;;;;;;;;;2079193;28;20026;-82
2022/12/29 06:27:43;;;;;;;34.70;12.05;;;;;;;;;;2081551;28;20017;-85
2022/12/29 06:29:02;;;;;;;31.77;10.95;;;;;;;;;;2081483;28;20021;-82
2022/12/29 06:30:22;;;;;;;39.15;11.07;;;;;;;;;;2078679;28;20112;-85
2022/12/29 06:31:41;;;;;;;33.10;11.45;;;;;;;;;;2080480;28;20042;-83
2022/12/29 06:32:59;;;;;;;31.15;10.27;;;;;;;;;;2077637;28;20037;-84
2022/12/29 06:34:19;;;;;;;36.13;10.90;;;;;;;;;;2076668;28;20092;-84
2022/12/29 06:35:39;;;;;;;33.58;10.93;;;;;;;;;;2081729;28;20094;-83
2022/12/29 06:36:58;;;;;;;35.65;10.75;;;;;;;;;;2082303;28;20033;-84
2022/12/29 06:38:17;;;;;;;29.73;10.30;;;;;;;;;;2078490;28;20037;-84
2022/12/29 06:39:36;;;;;;;35.97;11.60;;;;;;;;;;2080346;28;20021;-84
2022/12/29 06:40:55;;;;;;;33.95;10.30;;;;;;;;;;2077032;28;20029;-84
2022/12/29 06:42:14;;;;;;;44.83;11.80;;;;;;;;;;2076692;28;20097;-83
2022/12/29 06:43:33;;;;;;;36.80;11.70;;;;;;;;;;2077480;28;20037;-84
2022/12/29 06:44:52;;;;;;;38.90;10.32;;;;;;;;;;2077787;28;20033;-84
2022/12/29 06:46:11;;;;;;;36.03;10.82;;;;;;;;;;2080446;28;20021;-83
2022/12/29 06:47:30;;;;;;;36.75;10.45;;;;;;;;;;2077878;28;20034;-84
2022/12/29 06:48:49;;;;;;;36.67;10.93;;;;;;;;;;2086109;28;20055;-84
2022/12/29 06:50:08;;;;;;;38.03;10.25;;;;;;;;;;2080942;28;20029;-84
2022/12/29 06:51:28;;;;;;;36.83;11.93;;;;;;;;;;2079935;28;20069;-84
2022/12/29 06:52:46;;;;;;;43.60;11.00;;;;;;;;;;2077837;28;20087;-84
2022/12/29 06:54:05;;;;;;;44.05;11.50;;;;;;;;;;2080918;28;20053;-84
2022/12/29 06:55:24;;;;;;;44.22;10.98;;;;;;;;;;2080829;28;20514;-83
2022/12/29 06:56:43;;;;;;;40.45;11.25;;;;;;;;;;2078019;28;20386;-84
2022/12/29 06:58:02;;;;;;;40.90;11.18;;;;;;;;;;2075534;28;20037;-84
2022/12/29 06:59:21;;;;;;;50.75;11.40;;;;;;;;;;2081380;28;20030;-84
2022/12/29 07:00:39;;;;;;;44.25;12.40;;;;;;;;;;2081378;28;20014;-84
2022/12/29 07:01:58;;;;;;;45.38;11.57;;;;;;;;;;2077358;28;20033;-83
2022/12/29 07:03:17;;;;;;;53.90;12.68;;;;;;;;;;2080870;28;20042;-84
2022/12/29 07:04:36;;;;;;;59.33;12.70;;;;;;;;;;2078607;28;20033;-81
2022/12/29 07:05:57;;;;;;;48.42;11.52;;;;;;;;;;2078465;28;20124;-84
2022/12/29 07:07:16;;;;;;;43.65;11.63;;;;;;;;;;2086023;28;20429;-84
2022/12/29 07:08:35;;;;;;;40.30;11.55;;;;;;;;;;2081790;28;20038;-84
2022/12/29 07:09:54;;;;;;;42.70;11.82;;;;;;;;;;2077862;28;20021;-84
2022/12/29 07:11:12;;;;;;;51.38;12.00;;;;;;;;;;2077871;28;20096;-84
2022/12/29 07:12:31;;;;;;;48.13;12.05;;;;;;;;;;2077733;28;20033;-84
2022/12/29 07:13:50;;;;;;;54.70;13.13;;;;;;;;;;2078032;28;20402;-84
2022/12/29 07:15:09;;;;;;;55.47;11.98;;;;;;;;;;2077145;28;20033;-84
2022/12/29 07:16:29;;;;;;;58.55;13.02;;;;;;;;;;2078163;28;20033;-84
2022/12/29 07:17:49;;;;;;;45.15;14.07;;;;;;;;;;2078324;28;20499;-84
2022/12/29 07:19:08;;;;;;;59.08;14.00;;;;;;;;;;2078267;28;20034;-84
2022/12/29 07:20:27;;;;;;;66.13;13.63;;;;;;;;;;2077785;28;20033;-84
2022/12/29 07:21:46;;;;;;;63.08;13.68;;;;;;;;;;2076680;28;20029;-84
2022/12/29 07:23:04;;;;;;;62.00;14.10;;;;;;;;;;2077927;28;20628;-83
2022/12/29 07:24:25;;;;;;;68.47;14.27;;;;;;;;;;2077076;28;20029;-83
2022/12/29 07:25:44;;;;;;;54.70;13.10;;;;;;;;;;2078418;28;20026;-84
2022/12/29 07:27:03;;;;;;;65.30;14.07;;;;;;;;;;2077144;28;20029;-84
2022/12/29 07:28:22;;;;;;;69.68;14.70;;;;;;;;;;2076570;28;20033;-84
2022/12/29 07:29:42;;;;;;;85.63;16.38;;;;;;;;;;2077525;28;20481;-84
2022/12/29 07:31:01;;;;;;;71.28;14.82;;;;;;;;;;2078050;28;20017;-85
2022/12/29 07:32:20;;;;;;;58.25;14.40;;;;;;;;;;2076781;28;20046;-84
2022/12/29 07:33:39;;;;;;;85.75;16.42;;;;;;;;;;2077742;28;21437;-84
2022/12/29 07:34:58;;;;;;;64.78;14.85;;;;;;;;;;2077868;28;20037;-84
2022/12/29 07:36:17;;;;;;;77.90;15.50;;;;;;;;;;2076807;28;20675;-84
2022/12/29 07:37:36;;;;;;;88.00;15.65;;;;;;;;;;2079825;28;20026;-84
2022/12/29 07:38:55;;;;;;;73.78;15.63;;;;;;;;;;2080916;28;20454;-83
2022/12/29 07:40:14;;;;;;;81.40;16.20;;;;;;;;;;2077958;28;20558;-84
2022/12/29 07:41:34;;;;;;;59.40;13.30;;;;;;;;;;2077254;28;20041;-84
2022/12/29 07:42:53;;;;;;;78.00;16.23;;;;;;;;;;2076568;28;20021;-84
2022/12/29 07:44:12;;;;;;;69.45;14.75;;;;;;;;;;2077376;28;20045;-83
2022/12/29 07:45:31;;;;;;;67.97;15.38;;;;;;;;;;2080989;28;20491;-83
2022/12/29 07:46:50;;;;;;;80.55;15.98;;;;;;;;;;2080044;28;20033;-84
2022/12/29 07:48:09;;;;;;;74.00;15.15;;;;;;;;;;2080639;28;20469;-83
2022/12/29 07:49:28;;;;;;;70.10;14.55;;;;;;;;;;2079968;28;20479;-84
2022/12/29 07:50:47;;;;;;;77.68;13.82;;;;;;;;;;2079863;28;20029;-84
2022/12/29 07:52:07;;;;;;;69.13;14.15;;;;;;;;;;2077860;28;20550;-84
2022/12/29 07:53:25;;;;;;;74.70;13.68;;;;;;;;;;2076641;28;20033;-84
2022/12/29 07:54:45;;;;;;;57.83;14.18;;;;;;;;;;2076754;28;20026;-83
2022/12/29 07:56:04;;;;;;;64.85;14.65;;;;;;;;;;2080557;28;20068;-84
2022/12/29 07:57:23;;;;;;;65.82;14.40;;;;;;;;;;2080726;28;20029;-84
2022/12/29 07:58:42;;;;;;;64.07;14.00;;;;;;;;;;2076863;28;20045;-84
2022/12/29 08:00:01;;;;;;;65.57;14.52;;;;;;;;;;2076929;28;20406;-84
2022/12/29 08:01:23;;;;;;;60.67;13.95;;;;;;;;;;2080518;28;20034;-84
2022/12/29 08:02:42;;;;;;;61.63;12.40;;;;;;;;;;2080412;28;20470;-83
2022/12/29 08:04:00;;;;;;;60.22;13.65;;;;;;;;;;2080240;28;20065;-84
2022/12/29 08:05:19;;;;;;;63.15;13.77;;;;;;;;;;2080576;28;20057;-84
2022/12/29 08:06:38;;;;;;;55.63;12.60;;;;;;;;;;2077090;28;20025;-84
2022/12/29 08:07:57;;;;;;;57.05;12.52;;;;;;;;;;2077511;28;20490;-84
2022/12/29 08:09:16;;;;;;;47.40;11.82;;;;;;;;;;2085879;28;20033;-84
2022/12/29 08:10:35;;;;;;;51.05;11.55;;;;;;;;;;2080735;28;20592;-84
2022/12/29 08:11:54;;;;;;;51.97;12.32;;;;;;;;;;2080825;28;20018;-84
2022/12/29 08:13:13;;;;;;;51.55;12.80;;;;;;;;;;2075433;28;20030;-84
2022/12/29 08:14:32;;;;;;;51.20;12.15;;;;;;;;;;2077767;28;20029;-84
2022/12/29 08:15:51;;;;;;;41.47;10.63;;;;;;;;;;2077721;28;20030;-84
2022/12/29 08:17:10;;;;;;;43.50;11.27;;;;;;;;;;2080125;28;20025;-84
2022/12/29 08:18:29;;;;;;;36.20;10.90;;;;;;;;;;2079845;28;20038;-84
2022/12/29 08:19:48;;;;;;;36.15;10.35;;;;;;;;;;2076600;28;20029;-84
2022/12/29 08:21:08;;;;;;;47.58;10.77;;;;;;;;;;2077399;28;20033;-84
2022/12/29 08:22:27;;;;;;;41.38;10.93;;;;;;;;;;2085628;28;20037;-83
2022/12/29 08:23:47;;;;;;;30.23;9.68;;;;;;;;;;2084285;28;20666;-84